sensor_id;sensor_type;location;lat;lon;timestamp;P1;durP1;ratioP1;P2;durP2;ratioP2
61397;SDS011;47267;48.130;-2.040;2022-09-27T00:02:13;5.63;;;1.30;;
61397;SDS011;47267;48.130;-2.040;2022-09-27T00:04:39;3.58;;;1.25;;
61397;SDS011;47267;48.130;-2.040;2022-09-27T00:07:05;4.13;;;1.00;;
61397;SDS011;47267;48.130;-2.040;2022-09-27T00:09:31;3.38;;;1.08;;
61397;SDS011;47267;48.130;-2.040;2022-09-27T00:11:57;4.43;;;1.20;;
61397;SDS011;47267;48.130;-2.040;2022-09-27T00:14:23;3.78;;;0.98;;
61397;SDS011;47267;48.130;-2.040;2022-09-27T00:16:49;3.95;;;1.02;;
61397;SDS011;47267;48.130;-2.040;2022-09-27T00:19:18;5.22;;;1.35;;
61397;SDS011;47267;48.130;-2.040;2022-09-27T00:21:47;3.20;;;0.85;;
61397;SDS011;47267;48.130;-2.040;2022-09-27T00:24:15;4.35;;;1.10;;
61397;SDS011;47267;48.130;-2.040;2022-09-27T00:26:42;4.13;;;1.08;;
61397;SDS011;47267;48.130;-2.040;2022-09-27T00:29:09;4.97;;;1.20;;
61397;SDS011;47267;48.130;-2.040;2022-09-27T00:31:35;4.72;;;1.10;;
61397;SDS011;47267;48.130;-2.040;2022-09-27T00:34:02;4.13;;;1.23;;
61397;SDS011;47267;48.130;-2.040;2022-09-27T00:36:29;2.83;;;0.80;;
61397;SDS011;47267;48.130;-2.040;2022-09-27T00:38:56;4.82;;;1.55;;
61397;SDS011;47267;48.130;-2.040;2022-09-27T00:41:27;5.15;;;0.90;;
61397;SDS011;47267;48.130;-2.040;2022-09-27T00:43:55;4.05;;;0.93;;
61397;SDS011;47267;48.130;-2.040;2022-09-27T00:48:54;3.45;;;0.93;;
61397;SDS011;47267;48.130;-2.040;2022-09-27T00:51:36;2.55;;;0.77;;
61397;SDS011;47267;48.130;-2.040;2022-09-27T00:54:03;3.17;;;0.95;;
61397;SDS011;47267;48.130;-2.040;2022-09-27T00:56:31;5.07;;;1.20;;
61397;SDS011;47267;48.130;-2.040;2022-09-27T00:59:01;3.95;;;1.20;;
61397;SDS011;47267;48.130;-2.040;2022-09-27T01:01:35;2.80;;;1.10;;
61397;SDS011;47267;48.130;-2.040;2022-09-27T01:06:31;4.85;;;1.20;;
61397;SDS011;47267;48.130;-2.040;2022-09-27T01:08:58;2.38;;;0.80;;
61397;SDS011;47267;48.130;-2.040;2022-09-27T01:23:02;4.38;;;1.20;;
61397;SDS011;47267;48.130;-2.040;2022-09-27T01:33:34;4.10;;;1.30;;
61397;SDS011;47267;48.130;-2.040;2022-09-27T01:41:46;4.55;;;0.95;;
61397;SDS011;47267;48.130;-2.040;2022-09-27T01:46:51;2.60;;;0.75;;
61397;SDS011;47267;48.130;-2.040;2022-09-27T01:49:38;3.77;;;1.07;;
61397;SDS011;47267;48.130;-2.040;2022-09-27T01:52:09;3.55;;;0.85;;
61397;SDS011;47267;48.130;-2.040;2022-09-27T01:54:42;3.17;;;0.90;;
61397;SDS011;47267;48.130;-2.040;2022-09-27T01:57:12;2.25;;;0.70;;
61397;SDS011;47267;48.130;-2.040;2022-09-27T01:59:48;3.58;;;1.10;;
61397;SDS011;47267;48.130;-2.040;2022-09-27T02:02:19;3.72;;;0.77;;
61397;SDS011;47267;48.130;-2.040;2022-09-27T02:04:49;2.47;;;0.80;;
61397;SDS011;47267;48.130;-2.040;2022-09-27T02:07:22;3.65;;;0.90;;
61397;SDS011;47267;48.130;-2.040;2022-09-27T02:12:21;3.20;;;1.00;;
61397;SDS011;47267;48.130;-2.040;2022-09-27T02:14:56;3.08;;;0.98;;
61397;SDS011;47267;48.130;-2.040;2022-09-27T02:20:23;1.88;;;0.70;;
61397;SDS011;47267;48.130;-2.040;2022-09-27T02:31:06;2.80;;;0.95;;
61397;SDS011;47267;48.130;-2.040;2022-09-27T02:33:34;2.08;;;0.98;;
61397;SDS011;47267;48.130;-2.040;2022-09-27T02:36:10;3.60;;;0.93;;
61397;SDS011;47267;48.130;-2.040;2022-09-27T02:38:36;4.45;;;0.80;;
61397;SDS011;47267;48.130;-2.040;2022-09-27T02:41:02;4.68;;;0.98;;
61397;SDS011;47267;48.130;-2.040;2022-09-27T02:43:28;4.03;;;1.00;;
61397;SDS011;47267;48.130;-2.040;2022-09-27T02:46:13;4.43;;;0.90;;
61397;SDS011;47267;48.130;-2.040;2022-09-27T03:00:35;3.10;;;0.88;;
61397;SDS011;47267;48.130;-2.040;2022-09-27T03:06:15;3.22;;;0.70;;
61397;SDS011;47267;48.130;-2.040;2022-09-27T03:08:43;2.67;;;0.85;;
61397;SDS011;47267;48.130;-2.040;2022-09-27T03:11:10;3.00;;;0.90;;
61397;SDS011;47267;48.130;-2.040;2022-09-27T03:13:36;2.63;;;0.70;;
61397;SDS011;47267;48.130;-2.040;2022-09-27T03:16:04;2.03;;;0.88;;
61397;SDS011;47267;48.130;-2.040;2022-09-27T03:18:30;3.90;;;0.80;;
61397;SDS011;47267;48.130;-2.040;2022-09-27T03:20:56;2.42;;;0.95;;
61397;SDS011;47267;48.130;-2.040;2022-09-27T03:23:22;3.42;;;1.33;;
61397;SDS011;47267;48.130;-2.040;2022-09-27T03:25:48;2.83;;;0.80;;
61397;SDS011;47267;48.130;-2.040;2022-09-27T03:28:14;2.85;;;0.88;;
61397;SDS011;47267;48.130;-2.040;2022-09-27T03:30:40;3.05;;;1.10;;
61397;SDS011;47267;48.130;-2.040;2022-09-27T03:33:07;4.20;;;1.20;;
61397;SDS011;47267;48.130;-2.040;2022-09-27T03:35:35;3.45;;;0.90;;
61397;SDS011;47267;48.130;-2.040;2022-09-27T03:38:02;4.20;;;1.10;;
61397;SDS011;47267;48.130;-2.040;2022-09-27T03:40:28;5.05;;;1.25;;
61397;SDS011;47267;48.130;-2.040;2022-09-27T03:42:54;2.90;;;1.00;;
61397;SDS011;47267;48.130;-2.040;2022-09-27T03:45:20;3.15;;;1.02;;
61397;SDS011;47267;48.130;-2.040;2022-09-27T03:47:46;3.80;;;0.95;;
61397;SDS011;47267;48.130;-2.040;2022-09-27T03:50:12;3.15;;;1.08;;
61397;SDS011;47267;48.130;-2.040;2022-09-27T03:52:38;4.50;;;1.35;;
61397;SDS011;47267;48.130;-2.040;2022-09-27T03:55:04;2.70;;;0.82;;
61397;SDS011;47267;48.130;-2.040;2022-09-27T03:57:30;4.07;;;0.90;;
61397;SDS011;47267;48.130;-2.040;2022-09-27T03:59:56;2.30;;;0.80;;
61397;SDS011;47267;48.130;-2.040;2022-09-27T04:02:24;4.90;;;1.35;;
61397;SDS011;47267;48.130;-2.040;2022-09-27T04:04:50;4.15;;;0.88;;
61397;SDS011;47267;48.130;-2.040;2022-09-27T04:07:16;5.00;;;1.15;;
61397;SDS011;47267;48.130;-2.040;2022-09-27T04:09:42;4.50;;;1.00;;
61397;SDS011;47267;48.130;-2.040;2022-09-27T04:12:10;2.35;;;0.70;;
61397;SDS011;47267;48.130;-2.040;2022-09-27T04:14:36;3.35;;;0.88;;
61397;SDS011;47267;48.130;-2.040;2022-09-27T04:17:02;4.15;;;1.05;;
61397;SDS011;47267;48.130;-2.040;2022-09-27T04:19:27;3.70;;;1.00;;
61397;SDS011;47267;48.130;-2.040;2022-09-27T04:21:53;2.03;;;0.77;;
61397;SDS011;47267;48.130;-2.040;2022-09-27T04:24:19;2.47;;;0.90;;
61397;SDS011;47267;48.130;-2.040;2022-09-27T04:26:44;2.20;;;0.73;;
61397;SDS011;47267;48.130;-2.040;2022-09-27T04:29:11;2.58;;;0.77;;
61397;SDS011;47267;48.130;-2.040;2022-09-27T04:31:36;3.38;;;0.75;;
61397;SDS011;47267;48.130;-2.040;2022-09-27T04:34:05;2.60;;;0.93;;
61397;SDS011;47267;48.130;-2.040;2022-09-27T04:36:31;3.90;;;1.20;;
61397;SDS011;47267;48.130;-2.040;2022-09-27T04:39:02;3.72;;;1.10;;
61397;SDS011;47267;48.130;-2.040;2022-09-27T04:41:30;3.72;;;0.90;;
61397;SDS011;47267;48.130;-2.040;2022-09-27T04:43:56;3.97;;;1.02;;
61397;SDS011;47267;48.130;-2.040;2022-09-27T04:46:25;3.95;;;1.00;;
61397;SDS011;47267;48.130;-2.040;2022-09-27T04:48:55;3.93;;;0.97;;
61397;SDS011;47267;48.130;-2.040;2022-09-27T04:51:25;4.85;;;1.00;;
61397;SDS011;47267;48.130;-2.040;2022-09-27T04:53:51;2.88;;;0.80;;
61397;SDS011;47267;48.130;-2.040;2022-09-27T04:56:17;1.85;;;0.82;;
61397;SDS011;47267;48.130;-2.040;2022-09-27T04:58:42;2.92;;;0.68;;
61397;SDS011;47267;48.130;-2.040;2022-09-27T05:01:08;4.07;;;0.90;;
61397;SDS011;47267;48.130;-2.040;2022-09-27T05:03:34;2.97;;;0.93;;
61397;SDS011;47267;48.130;-2.040;2022-09-27T05:06:00;3.65;;;1.10;;
61397;SDS011;47267;48.130;-2.040;2022-09-27T05:08:26;3.65;;;1.08;;
61397;SDS011;47267;48.130;-2.040;2022-09-27T05:10:54;3.35;;;1.10;;
61397;SDS011;47267;48.130;-2.040;2022-09-27T05:13:20;3.72;;;1.20;;
61397;SDS011;47267;48.130;-2.040;2022-09-27T05:15:46;4.63;;;1.13;;
61397;SDS011;47267;48.130;-2.040;2022-09-27T05:18:12;3.33;;;0.90;;
61397;SDS011;47267;48.130;-2.040;2022-09-27T05:20:38;6.25;;;1.20;;
61397;SDS011;47267;48.130;-2.040;2022-09-27T05:23:04;3.53;;;0.73;;
61397;SDS011;47267;48.130;-2.040;2022-09-27T05:25:30;4.00;;;1.02;;
61397;SDS011;47267;48.130;-2.040;2022-09-27T05:27:57;3.13;;;0.88;;
61397;SDS011;47267;48.130;-2.040;2022-09-27T05:30:23;2.90;;;0.80;;
61397;SDS011;47267;48.130;-2.040;2022-09-27T05:32:49;3.50;;;1.02;;
61397;SDS011;47267;48.130;-2.040;2022-09-27T05:35:17;3.97;;;1.00;;
61397;SDS011;47267;48.130;-2.040;2022-09-27T05:37:43;6.28;;;1.30;;
61397;SDS011;47267;48.130;-2.040;2022-09-27T05:40:19;4.13;;;1.00;;
61397;SDS011;47267;48.130;-2.040;2022-09-27T05:42:48;3.20;;;1.00;;
61397;SDS011;47267;48.130;-2.040;2022-09-27T05:45:15;4.57;;;1.10;;
61397;SDS011;47267;48.130;-2.040;2022-09-27T05:47:41;4.82;;;1.00;;
61397;SDS011;47267;48.130;-2.040;2022-09-27T05:50:06;2.70;;;0.90;;
61397;SDS011;47267;48.130;-2.040;2022-09-27T05:52:33;4.55;;;1.10;;
61397;SDS011;47267;48.130;-2.040;2022-09-27T05:54:59;3.97;;;0.93;;
61397;SDS011;47267;48.130;-2.040;2022-09-27T05:57:25;2.78;;;0.80;;
61397;SDS011;47267;48.130;-2.040;2022-09-27T05:59:51;4.57;;;1.33;;
61397;SDS011;47267;48.130;-2.040;2022-09-27T06:02:24;5.32;;;1.38;;
61397;SDS011;47267;48.130;-2.040;2022-09-27T06:04:50;3.10;;;1.05;;
61397;SDS011;47267;48.130;-2.040;2022-09-27T06:07:16;1.85;;;0.90;;
61397;SDS011;47267;48.130;-2.040;2022-09-27T06:09:42;5.35;;;1.23;;
61397;SDS011;47267;48.130;-2.040;2022-09-27T06:12:08;4.38;;;1.23;;
61397;SDS011;47267;48.130;-2.040;2022-09-27T06:14:35;4.53;;;0.90;;
61397;SDS011;47267;48.130;-2.040;2022-09-27T06:17:02;3.55;;;0.93;;
61397;SDS011;47267;48.130;-2.040;2022-09-27T06:19:28;4.00;;;1.33;;
61397;SDS011;47267;48.130;-2.040;2022-09-27T06:21:54;3.50;;;0.98;;
61397;SDS011;47267;48.130;-2.040;2022-09-27T06:24:19;3.60;;;0.90;;
61397;SDS011;47267;48.130;-2.040;2022-09-27T06:26:45;3.47;;;1.02;;
61397;SDS011;47267;48.130;-2.040;2022-09-27T06:29:11;5.38;;;1.35;;
61397;SDS011;47267;48.130;-2.040;2022-09-27T06:31:37;3.65;;;1.08;;
61397;SDS011;47267;48.130;-2.040;2022-09-27T06:34:03;2.80;;;0.77;;
61397;SDS011;47267;48.130;-2.040;2022-09-27T06:36:29;4.47;;;1.10;;
61397;SDS011;47267;48.130;-2.040;2022-09-27T06:38:56;5.60;;;1.10;;
61397;SDS011;47267;48.130;-2.040;2022-09-27T06:41:22;3.92;;;0.95;;
61397;SDS011;47267;48.130;-2.040;2022-09-27T06:43:47;6.40;;;1.23;;
61397;SDS011;47267;48.130;-2.040;2022-09-27T06:46:13;5.68;;;1.27;;
61397;SDS011;47267;48.130;-2.040;2022-09-27T06:48:39;10.30;;;1.08;;
61397;SDS011;47267;48.130;-2.040;2022-09-27T06:51:05;4.03;;;1.20;;
61397;SDS011;47267;48.130;-2.040;2022-09-27T06:53:31;4.13;;;1.10;;
61397;SDS011;47267;48.130;-2.040;2022-09-27T06:56:00;5.20;;;1.20;;
61397;SDS011;47267;48.130;-2.040;2022-09-27T06:58:27;4.80;;;1.15;;
61397;SDS011;47267;48.130;-2.040;2022-09-27T07:01:16;4.72;;;1.38;;
61397;SDS011;47267;48.130;-2.040;2022-09-27T07:03:42;5.20;;;1.65;;
61397;SDS011;47267;48.130;-2.040;2022-09-27T07:06:15;3.35;;;1.00;;
61397;SDS011;47267;48.130;-2.040;2022-09-27T07:08:52;4.30;;;1.05;;
61397;SDS011;47267;48.130;-2.040;2022-09-27T07:11:18;4.28;;;1.20;;
61397;SDS011;47267;48.130;-2.040;2022-09-27T07:13:44;5.63;;;1.23;;
61397;SDS011;47267;48.130;-2.040;2022-09-27T07:16:10;5.68;;;1.35;;
61397;SDS011;47267;48.130;-2.040;2022-09-27T07:18:37;6.93;;;1.30;;
61397;SDS011;47267;48.130;-2.040;2022-09-27T07:21:03;4.82;;;1.35;;
61397;SDS011;47267;48.130;-2.040;2022-09-27T07:23:29;5.68;;;1.10;;
61397;SDS011;47267;48.130;-2.040;2022-09-27T07:25:55;6.05;;;1.55;;
61397;SDS011;47267;48.130;-2.040;2022-09-27T07:28:21;5.55;;;1.40;;
61397;SDS011;47267;48.130;-2.040;2022-09-27T07:30:47;5.80;;;1.40;;
61397;SDS011;47267;48.130;-2.040;2022-09-27T07:33:13;5.70;;;1.05;;
61397;SDS011;47267;48.130;-2.040;2022-09-27T07:35:39;4.35;;;1.30;;
61397;SDS011;47267;48.130;-2.040;2022-09-27T07:38:05;2.33;;;0.93;;
61397;SDS011;47267;48.130;-2.040;2022-09-27T07:40:37;5.90;;;1.10;;
61397;SDS011;47267;48.130;-2.040;2022-09-27T07:43:04;4.70;;;1.25;;
61397;SDS011;47267;48.130;-2.040;2022-09-27T07:45:32;7.82;;;1.42;;
61397;SDS011;47267;48.130;-2.040;2022-09-27T07:47:57;5.50;;;1.13;;
61397;SDS011;47267;48.130;-2.040;2022-09-27T07:50:23;4.63;;;1.10;;
61397;SDS011;47267;48.130;-2.040;2022-09-27T07:52:50;4.40;;;1.20;;
61397;SDS011;47267;48.130;-2.040;2022-09-27T07:55:16;5.18;;;1.10;;
61397;SDS011;47267;48.130;-2.040;2022-09-27T07:57:43;4.45;;;1.25;;
61397;SDS011;47267;48.130;-2.040;2022-09-27T08:00:10;6.22;;;1.50;;
61397;SDS011;47267;48.130;-2.040;2022-09-27T08:02:39;4.80;;;1.20;;
61397;SDS011;47267;48.130;-2.040;2022-09-27T08:05:05;4.35;;;1.10;;
61397;SDS011;47267;48.130;-2.040;2022-09-27T08:07:31;4.85;;;1.35;;
61397;SDS011;47267;48.130;-2.040;2022-09-27T08:09:57;8.35;;;1.58;;
61397;SDS011;47267;48.130;-2.040;2022-09-27T08:12:23;4.30;;;1.13;;
61397;SDS011;47267;48.130;-2.040;2022-09-27T08:14:49;4.72;;;0.98;;
61397;SDS011;47267;48.130;-2.040;2022-09-27T08:17:16;5.57;;;1.02;;
61397;SDS011;47267;48.130;-2.040;2022-09-27T08:19:43;4.03;;;1.10;;
61397;SDS011;47267;48.130;-2.040;2022-09-27T08:22:11;4.38;;;1.02;;
61397;SDS011;47267;48.130;-2.040;2022-09-27T08:24:38;4.60;;;1.10;;
61397;SDS011;47267;48.130;-2.040;2022-09-27T08:27:07;4.00;;;1.00;;
61397;SDS011;47267;48.130;-2.040;2022-09-27T08:29:36;4.97;;;1.10;;
61397;SDS011;47267;48.130;-2.040;2022-09-27T08:32:01;5.43;;;1.20;;
61397;SDS011;47267;48.130;-2.040;2022-09-27T08:34:27;4.85;;;1.30;;
61397;SDS011;47267;48.130;-2.040;2022-09-27T08:36:53;5.72;;;1.10;;
61397;SDS011;47267;48.130;-2.040;2022-09-27T08:39:20;3.85;;;1.10;;
61397;SDS011;47267;48.130;-2.040;2022-09-27T08:41:50;6.10;;;1.48;;
61397;SDS011;47267;48.130;-2.040;2022-09-27T08:49:50;8.38;;;1.40;;
61397;SDS011;47267;48.130;-2.040;2022-09-27T08:52:22;5.72;;;1.20;;
61397;SDS011;47267;48.130;-2.040;2022-09-27T08:54:54;3.35;;;1.15;;
61397;SDS011;47267;48.130;-2.040;2022-09-27T08:57:22;4.53;;;1.35;;
61397;SDS011;47267;48.130;-2.040;2022-09-27T09:00:03;3.70;;;1.23;;
61397;SDS011;47267;48.130;-2.040;2022-09-27T09:02:32;6.97;;;1.40;;
61397;SDS011;47267;48.130;-2.040;2022-09-27T09:05:02;3.83;;;1.10;;
61397;SDS011;47267;48.130;-2.040;2022-09-27T09:16:44;3.95;;;1.05;;
61397;SDS011;47267;48.130;-2.040;2022-09-27T09:22:32;5.80;;;1.25;;
61397;SDS011;47267;48.130;-2.040;2022-09-27T09:41:42;6.25;;;1.10;;
61397;SDS011;47267;48.130;-2.040;2022-09-27T09:44:24;3.40;;;1.40;;
61397;SDS011;47267;48.130;-2.040;2022-09-27T09:46:58;7.32;;;1.48;;
61397;SDS011;47267;48.130;-2.040;2022-09-27T09:52:09;8.98;;;1.63;;
61397;SDS011;47267;48.130;-2.040;2022-09-27T09:54:42;6.43;;;1.30;;
61397;SDS011;47267;48.130;-2.040;2022-09-27T09:57:22;7.90;;;1.70;;
61397;SDS011;47267;48.130;-2.040;2022-09-27T09:59:58;7.57;;;1.48;;
61397;SDS011;47267;48.130;-2.040;2022-09-27T10:02:34;5.78;;;1.83;;
61397;SDS011;47267;48.130;-2.040;2022-09-27T10:05:04;9.68;;;1.58;;
61397;SDS011;47267;48.130;-2.040;2022-09-27T10:07:31;5.32;;;1.35;;
61397;SDS011;47267;48.130;-2.040;2022-09-27T10:09:59;4.35;;;1.50;;
61397;SDS011;47267;48.130;-2.040;2022-09-27T10:12:26;7.75;;;1.50;;
61397;SDS011;47267;48.130;-2.040;2022-09-27T10:14:53;5.72;;;1.50;;
61397;SDS011;47267;48.130;-2.040;2022-09-27T10:17:24;5.15;;;1.52;;
61397;SDS011;47267;48.130;-2.040;2022-09-27T10:19:52;6.57;;;1.58;;
61397;SDS011;47267;48.130;-2.040;2022-09-27T10:22:25;7.70;;;1.67;;
61397;SDS011;47267;48.130;-2.040;2022-09-27T10:24:57;8.15;;;1.55;;
61397;SDS011;47267;48.130;-2.040;2022-09-27T10:27:27;6.00;;;1.48;;
61397;SDS011;47267;48.130;-2.040;2022-09-27T10:30:20;7.47;;;1.63;;
61397;SDS011;47267;48.130;-2.040;2022-09-27T10:32:56;9.30;;;1.83;;
61397;SDS011;47267;48.130;-2.040;2022-09-27T10:35:33;9.75;;;2.30;;
61397;SDS011;47267;48.130;-2.040;2022-09-27T10:40:54;6.80;;;1.75;;
61397;SDS011;47267;48.130;-2.040;2022-09-27T10:43:35;8.63;;;1.98;;
61397;SDS011;47267;48.130;-2.040;2022-09-27T10:48:29;7.78;;;1.65;;
61397;SDS011;47267;48.130;-2.040;2022-09-27T10:50:59;10.13;;;1.98;;
61397;SDS011;47267;48.130;-2.040;2022-09-27T10:53:29;10.02;;;2.00;;
61397;SDS011;47267;48.130;-2.040;2022-09-27T10:55:56;7.78;;;1.90;;
61397;SDS011;47267;48.130;-2.040;2022-09-27T10:58:35;7.60;;;1.98;;
61397;SDS011;47267;48.130;-2.040;2022-09-27T11:01:06;9.57;;;2.17;;
61397;SDS011;47267;48.130;-2.040;2022-09-27T11:03:36;7.68;;;1.90;;
61397;SDS011;47267;48.130;-2.040;2022-09-27T11:08:52;7.18;;;2.13;;
61397;SDS011;47267;48.130;-2.040;2022-09-27T11:11:21;10.52;;;2.05;;
61397;SDS011;47267;48.130;-2.040;2022-09-27T11:13:59;6.72;;;1.73;;
61397;SDS011;47267;48.130;-2.040;2022-09-27T11:25:19;6.63;;;2.13;;
61397;SDS011;47267;48.130;-2.040;2022-09-27T11:36:13;11.98;;;2.45;;
61397;SDS011;47267;48.130;-2.040;2022-09-27T11:44:31;10.30;;;2.45;;
61397;SDS011;47267;48.130;-2.040;2022-09-27T11:49:57;8.25;;;2.17;;
61397;SDS011;47267;48.130;-2.040;2022-09-27T11:55:50;9.00;;;1.85;;
61397;SDS011;47267;48.130;-2.040;2022-09-27T12:01:46;16.50;;;2.40;;
61397;SDS011;47267;48.130;-2.040;2022-09-27T12:07:10;11.70;;;2.30;;
61397;SDS011;47267;48.130;-2.040;2022-09-27T12:09:51;12.07;;;2.10;;
61397;SDS011;47267;48.130;-2.040;2022-09-27T12:12:22;9.23;;;2.25;;
61397;SDS011;47267;48.130;-2.040;2022-09-27T12:15:00;9.57;;;2.10;;
61397;SDS011;47267;48.130;-2.040;2022-09-27T12:17:30;7.88;;;2.15;;
61397;SDS011;47267;48.130;-2.040;2022-09-27T12:20:02;11.02;;;2.38;;
61397;SDS011;47267;48.130;-2.040;2022-09-27T12:25:29;8.98;;;2.22;;
61397;SDS011;47267;48.130;-2.040;2022-09-27T12:28:05;10.75;;;2.25;;
61397;SDS011;47267;48.130;-2.040;2022-09-27T12:30:33;10.32;;;2.30;;
61397;SDS011;47267;48.130;-2.040;2022-09-27T12:35:50;9.75;;;2.40;;
61397;SDS011;47267;48.130;-2.040;2022-09-27T12:38:20;8.00;;;2.22;;
61397;SDS011;47267;48.130;-2.040;2022-09-27T12:41:08;9.50;;;2.00;;
61397;SDS011;47267;48.130;-2.040;2022-09-27T12:43:38;7.75;;;1.90;;
61397;SDS011;47267;48.130;-2.040;2022-09-27T12:46:21;11.07;;;2.53;;
61397;SDS011;47267;48.130;-2.040;2022-09-27T12:51:46;10.02;;;2.20;;
61397;SDS011;47267;48.130;-2.040;2022-09-27T12:54:22;10.50;;;2.70;;
61397;SDS011;47267;48.130;-2.040;2022-09-27T13:00:57;10.35;;;2.50;;
61397;SDS011;47267;48.130;-2.040;2022-09-27T13:03:08;13.05;;;2.15;;
61397;SDS011;47267;48.130;-2.040;2022-09-27T13:14:01;7.93;;;1.90;;
61397;SDS011;47267;48.130;-2.040;2022-09-27T13:16:29;8.13;;;1.70;;
61397;SDS011;47267;48.130;-2.040;2022-09-27T13:32:36;8.63;;;2.22;;
61397;SDS011;47267;48.130;-2.040;2022-09-27T13:35:36;9.27;;;1.92;;
61397;SDS011;47267;48.130;-2.040;2022-09-27T13:37:55;7.93;;;2.03;;
61397;SDS011;47267;48.130;-2.040;2022-09-27T13:45:47;7.43;;;2.25;;
61397;SDS011;47267;48.130;-2.040;2022-09-27T13:56:00;8.77;;;2.22;;
61397;SDS011;47267;48.130;-2.040;2022-09-27T14:04:17;7.78;;;1.80;;
61397;SDS011;47267;48.130;-2.040;2022-09-27T14:06:49;9.15;;;2.20;;
61397;SDS011;47267;48.130;-2.040;2022-09-27T14:11:52;6.65;;;1.90;;
61397;SDS011;47267;48.130;-2.040;2022-09-27T14:14:23;5.30;;;1.60;;
61397;SDS011;47267;48.130;-2.040;2022-09-27T14:16:51;11.45;;;2.15;;
61397;SDS011;47267;48.130;-2.040;2022-09-27T14:19:18;5.60;;;1.67;;
61397;SDS011;47267;48.130;-2.040;2022-09-27T14:21:46;9.57;;;2.00;;
61397;SDS011;47267;48.130;-2.040;2022-09-27T14:24:23;7.30;;;1.83;;
61397;SDS011;47267;48.130;-2.040;2022-09-27T14:26:50;6.30;;;1.67;;
61397;SDS011;47267;48.130;-2.040;2022-09-27T14:29:38;6.82;;;1.58;;
61397;SDS011;47267;48.130;-2.040;2022-09-27T14:32:10;6.22;;;1.60;;
61397;SDS011;47267;48.130;-2.040;2022-09-27T14:34:38;8.35;;;1.95;;
61397;SDS011;47267;48.130;-2.040;2022-09-27T14:37:04;8.07;;;2.08;;
61397;SDS011;47267;48.130;-2.040;2022-09-27T14:42:22;8.90;;;1.80;;
61397;SDS011;47267;48.130;-2.040;2022-09-27T14:44:50;8.25;;;1.67;;
61397;SDS011;47267;48.130;-2.040;2022-09-27T14:47:18;7.13;;;1.52;;
61397;SDS011;47267;48.130;-2.040;2022-09-27T14:49:50;9.13;;;1.90;;
61397;SDS011;47267;48.130;-2.040;2022-09-27T14:52:22;6.25;;;1.70;;
61397;SDS011;47267;48.130;-2.040;2022-09-27T14:55:01;9.63;;;2.30;;
61397;SDS011;47267;48.130;-2.040;2022-09-27T14:57:30;7.18;;;1.75;;
61397;SDS011;47267;48.130;-2.040;2022-09-27T15:00:01;8.70;;;1.73;;
61397;SDS011;47267;48.130;-2.040;2022-09-27T15:02:59;4.95;;;1.75;;
61397;SDS011;47267;48.130;-2.040;2022-09-27T15:05:32;6.27;;;1.60;;
61397;SDS011;47267;48.130;-2.040;2022-09-27T15:08:00;6.45;;;1.73;;
61397;SDS011;47267;48.130;-2.040;2022-09-27T15:10:29;8.90;;;2.45;;
61397;SDS011;47267;48.130;-2.040;2022-09-27T15:12:56;10.18;;;2.13;;
61397;SDS011;47267;48.130;-2.040;2022-09-27T15:15:35;6.93;;;1.70;;
61397;SDS011;47267;48.130;-2.040;2022-09-27T15:18:28;6.30;;;1.80;;
61397;SDS011;47267;48.130;-2.040;2022-09-27T15:20:55;8.48;;;2.00;;
61397;SDS011;47267;48.130;-2.040;2022-09-27T15:23:28;10.07;;;2.42;;
61397;SDS011;47267;48.130;-2.040;2022-09-27T15:28:27;9.15;;;1.90;;
61397;SDS011;47267;48.130;-2.040;2022-09-27T15:30:54;5.57;;;1.60;;
61397;SDS011;47267;48.130;-2.040;2022-09-27T15:33:22;5.75;;;1.60;;
61397;SDS011;47267;48.130;-2.040;2022-09-27T15:35:52;8.50;;;1.93;;
61397;SDS011;47267;48.130;-2.040;2022-09-27T15:38:30;4.65;;;1.40;;
61397;SDS011;47267;48.130;-2.040;2022-09-27T15:40:57;6.82;;;1.98;;
61397;SDS011;47267;48.130;-2.040;2022-09-27T15:46:23;6.57;;;1.83;;
61397;SDS011;47267;48.130;-2.040;2022-09-27T15:49:21;7.72;;;1.45;;
61397;SDS011;47267;48.130;-2.040;2022-09-27T15:51:52;7.68;;;1.70;;
61397;SDS011;47267;48.130;-2.040;2022-09-27T15:54:19;5.05;;;1.50;;
61397;SDS011;47267;48.130;-2.040;2022-09-27T15:56:47;4.22;;;1.35;;
61397;SDS011;47267;48.130;-2.040;2022-09-27T15:59:18;6.65;;;1.52;;
61397;SDS011;47267;48.130;-2.040;2022-09-27T16:01:46;5.55;;;1.52;;
61397;SDS011;47267;48.130;-2.040;2022-09-27T16:04:12;7.03;;;1.55;;
61397;SDS011;47267;48.130;-2.040;2022-09-27T16:06:38;7.28;;;1.65;;
61397;SDS011;47267;48.130;-2.040;2022-09-27T16:09:12;4.97;;;1.80;;
61397;SDS011;47267;48.130;-2.040;2022-09-27T16:11:43;7.07;;;1.52;;
61397;SDS011;47267;48.130;-2.040;2022-09-27T16:14:12;6.15;;;1.30;;
61397;SDS011;47267;48.130;-2.040;2022-09-27T16:16:41;5.57;;;1.55;;
61397;SDS011;47267;48.130;-2.040;2022-09-27T16:19:12;4.43;;;1.25;;
61397;SDS011;47267;48.130;-2.040;2022-09-27T16:21:38;5.07;;;1.40;;
61397;SDS011;47267;48.130;-2.040;2022-09-27T16:24:03;4.38;;;1.08;;
61397;SDS011;47267;48.130;-2.040;2022-09-27T16:26:29;3.83;;;1.23;;
61397;SDS011;47267;48.130;-2.040;2022-09-27T16:28:55;5.00;;;1.38;;
61397;SDS011;47267;48.130;-2.040;2022-09-27T16:31:21;5.55;;;1.38;;
61397;SDS011;47267;48.130;-2.040;2022-09-27T16:33:47;3.33;;;1.10;;
61397;SDS011;47267;48.130;-2.040;2022-09-27T16:36:16;5.40;;;1.33;;
61397;SDS011;47267;48.130;-2.040;2022-09-27T16:38:50;4.93;;;1.50;;
61397;SDS011;47267;48.130;-2.040;2022-09-27T16:41:17;2.78;;;0.88;;
61397;SDS011;47267;48.130;-2.040;2022-09-27T16:43:44;3.22;;;0.95;;
61397;SDS011;47267;48.130;-2.040;2022-09-27T16:46:11;4.10;;;1.08;;
61397;SDS011;47267;48.130;-2.040;2022-09-27T16:48:40;3.50;;;0.95;;
61397;SDS011;47267;48.130;-2.040;2022-09-27T16:51:08;1.52;;;0.65;;
61397;SDS011;47267;48.130;-2.040;2022-09-27T16:53:55;3.65;;;1.13;;
61397;SDS011;47267;48.130;-2.040;2022-09-27T16:56:21;2.88;;;0.95;;
61397;SDS011;47267;48.130;-2.040;2022-09-27T16:58:47;3.55;;;1.13;;
61397;SDS011;47267;48.130;-2.040;2022-09-27T17:01:13;3.63;;;1.10;;
61397;SDS011;47267;48.130;-2.040;2022-09-27T17:03:43;4.80;;;1.98;;
61397;SDS011;47267;48.130;-2.040;2022-09-27T17:06:13;5.70;;;2.30;;
61397;SDS011;47267;48.130;-2.040;2022-09-27T17:08:40;7.63;;;2.97;;
61397;SDS011;47267;48.130;-2.040;2022-09-27T17:11:06;6.20;;;2.95;;
61397;SDS011;47267;48.130;-2.040;2022-09-27T17:13:32;6.57;;;3.97;;
61397;SDS011;47267;48.130;-2.040;2022-09-27T17:16:04;6.10;;;3.42;;
61397;SDS011;47267;48.130;-2.040;2022-09-27T17:18:30;6.53;;;4.22;;
61397;SDS011;47267;48.130;-2.040;2022-09-27T17:21:00;5.38;;;3.80;;
61397;SDS011;47267;48.130;-2.040;2022-09-27T17:23:27;7.13;;;5.25;;
61397;SDS011;47267;48.130;-2.040;2022-09-27T17:28:54;6.03;;;4.70;;
61397;SDS011;47267;48.130;-2.040;2022-09-27T17:31:21;8.77;;;5.10;;
61397;SDS011;47267;48.130;-2.040;2022-09-27T17:33:48;7.43;;;5.15;;
61397;SDS011;47267;48.130;-2.040;2022-09-27T17:36:17;5.97;;;5.15;;
61397;SDS011;47267;48.130;-2.040;2022-09-27T17:38:51;8.23;;;5.22;;
61397;SDS011;47267;48.130;-2.040;2022-09-27T17:41:18;6.93;;;4.78;;
61397;SDS011;47267;48.130;-2.040;2022-09-27T17:43:47;5.68;;;4.22;;
61397;SDS011;47267;48.130;-2.040;2022-09-27T17:46:21;7.82;;;4.75;;
61397;SDS011;47267;48.130;-2.040;2022-09-27T17:48:49;6.53;;;4.80;;
61397;SDS011;47267;48.130;-2.040;2022-09-27T17:51:35;6.65;;;5.00;;
61397;SDS011;47267;48.130;-2.040;2022-09-27T17:54:02;6.50;;;4.68;;
61397;SDS011;47267;48.130;-2.040;2022-09-27T17:56:31;5.80;;;4.38;;
61397;SDS011;47267;48.130;-2.040;2022-09-27T17:59:05;4.82;;;4.32;;
61397;SDS011;47267;48.130;-2.040;2022-09-27T18:01:32;5.40;;;4.88;;
61397;SDS011;47267;48.130;-2.040;2022-09-27T18:04:00;7.50;;;5.15;;
61397;SDS011;47267;48.130;-2.040;2022-09-27T18:06:27;7.43;;;5.50;;
61397;SDS011;47267;48.130;-2.040;2022-09-27T18:08:53;7.22;;;5.30;;
61397;SDS011;47267;48.130;-2.040;2022-09-27T18:11:21;7.32;;;5.65;;
61397;SDS011;47267;48.130;-2.040;2022-09-27T18:13:52;5.70;;;5.20;;
61397;SDS011;47267;48.130;-2.040;2022-09-27T18:16:26;7.57;;;5.82;;